Data for 10/25/2014

Time Sea-Level Adjusted Pressure Absolute Pressure Temperature Relative Humidity Dew Point   
(mb) (inHg) (mb) (inHg) (C) (F) (%) (C) (F)
00:05 1020 30.12 849 25.07 4.9 40.9 81 2 35.6
00:10 1020 30.12 849 25.07 4.9 40.8 79 1.6 34.8
00:15 1020 30.12 849 25.07 5.4 41.8 78 1.9 35.5
00:20 1020 30.12 849 25.07 5.8 42.4 77 2.1 35.8
00:25 1020 30.12 849 25.07 5.3 41.6 80 2.1 35.7
00:30 1020 30.12 849 25.07 5.3 41.5 78 1.7 35.1
00:35 1020 30.12 849 25.07 5.3 41.5 79 1.9 35.4
00:40 1020 30.12 849 25.07 5.1 41.1 80 1.8 35.3
00:45 1020 30.12 849 25.07 4.9 40.8 80 1.7 35.1
00:50 1020 30.12 849 25.07 5.1 41.1 78 1.5 34.7
00:55 1020 30.12 849 25.07 5.1 41.2 79 1.7 35
01:00 1020 30.12 849 25.07 4.9 40.7 80 1.7 35
01:05 1020 30.12 849 25.07 4.3 39.8 82 1.5 34.7
01:10 1020 30.12 849 25.07 4.6 40.4 81 1.6 34.9
01:15 1020 30.12 849 25.07 5 41 82 2.1 35.8
01:20 1020 30.12 849 25.07 5 40.9 80 1.7 35.1
01:25 1020 30.12 849 25.07 4.8 40.7 81 1.8 35.2
01:30 1020 30.12 849 25.07 5.4 41.8 77 1.8 35.2
01:35 1020 30.12 849 25.07 5.2 41.4 79 1.9 35.4
01:40 1020 30.12 849 25.07 5.2 41.4 78 1.7 35
01:45 1020 30.12 849 25.07 4.9 40.8 81 1.8 35.3
01:50 1020 30.12 849 25.07 5 41 78 1.5 34.6
01:55 1020 30.12 849 25.07 4.5 40.2 81 1.5 34.7
02:00 1020 30.12 849 25.07 5.5 41.9 76 1.7 35
02:05 1020 30.12 849 25.07 5.7 42.2 76 1.8 35.3
02:10 1020 30.12 849 25.07 5.3 41.5 78 1.8 35.3
02:15 1020 30.12 849 25.07 5 41 79 1.6 34.9
02:20 1020 30.12 849 25.07 5.2 41.3 77 1.5 34.8
02:25 1020 30.12 849 25.07 5.3 41.5 77 1.6 34.9
02:30 1020 30.12 849 25.07 5.2 41.4 77 1.6 34.8
02:35 1020 30.12 849 25.07 5.2 41.4 77 1.5 34.7
02:40 1019 30.09 849 25.07 5.2 41.4 77 1.5 34.7
02:45 1019 30.09 849 25.07 5.1 41.1 77 1.4 34.5
02:50 1019 30.09 849 25.07 4.9 40.8 78 1.4 34.5
02:55 1019 30.09 849 25.07 4.8 40.6 79 1.4 34.5
03:00 1019 30.09 848 25.04 4.7 40.4 79 1.4 34.5
03:05 1019 30.09 848 25.04 4.9 40.7 78 1.3 34.3
03:10 1019 30.09 848 25.04 5 40.9 79 1.7 35.1
03:15 1019 30.09 848 25.04 4.7 40.5 81 1.8 35.3
03:20 1019 30.09 848 25.04 4.8 40.6 81 1.7 35.1
03:25 1019 30.09 848 25.04 4.6 40.3 82 1.7 35.1
03:30 1019 30.09 848 25.04 4.7 40.5 83 2.1 35.7
03:35 1019 30.09 848 25.04 4.8 40.6 83 2.1 35.8
03:40 1019 30.09 848 25.04 4.8 40.6 81 1.8 35.2
03:45 1019 30.09 848 25.04 4.6 40.3 79 1.4 34.5
03:50 1019 30.09 848 25.04 4.8 40.7 76 0.9 33.7
03:55 1019 30.09 848 25.04 5 41 75 1 33.8
04:00 1018 30.06 848 25.04 4.8 40.6 77 1.1 33.9
04:05 1018 30.06 848 25.04 4.6 40.2 76 0.8 33.4
04:10 1018 30.06 848 25.04 4.5 40.1 77 0.9 33.6
04:15 1018 30.06 848 25.04 4.2 39.5 76 0.3 32.6
04:20 1018 30.06 848 25.04 4.2 39.5 76 0.3 32.6
04:25 1018 30.06 848 25.04 4.3 39.8 75 0.3 32.6
04:30 1018 30.06 848 25.04 4.3 39.8 76 0.4 32.8
04:35 1018 30.06 848 25.04 4.2 39.5 78 0.7 33.3
04:40 1018 30.06 848 25.04 4.6 40.3 72 0 32.1
04:45 1018 30.06 848 25.04 4.3 39.7 78 0.7 33.3
04:50 1018 30.06 847 25.01 4 39.2 83 1.3 34.3
04:55 1018 30.06 847 25.01 4.1 39.4 87 2.2 35.9
05:00 1018 30.06 847 25.01 3.9 39 77 0.3 32.6
05:05 1018 30.06 847 25.01 3.1 37.5 81 0.1 32.1
05:10 1018 30.06 847 25.01 2.5 36.5 82 -0.3 31.5
05:15 1018 30.06 847 25.01 2.6 36.7 84 0.1 32.3
05:20 1018 30.06 847 25.01 3.1 37.6 84 0.6 33.1
05:25 1018 30.06 847 25.01 3.5 38.2 90 1.9 35.5
05:30 1018 30.06 847 25.01 4.1 39.3 91 2.7 36.9
05:35 1018 30.06 847 25.01 3.9 39.1 80 0.7 33.3
05:40 1018 30.06 847 25.01 3 37.4 87 1 33.8
05:45 1018 30.06 847 25.01 3.3 37.9 84 0.9 33.6
05:50 1018 30.06 847 25.01 3.2 37.8 83 0.7 33.3
05:55 1018 30.06 847 25.01 3.2 37.8 86 1.1 33.9
06:00 1018 30.06 847 25.01 3.2 37.8 81 0.3 32.5
06:05 1018 30.06 847 25.01 2.8 37 78 -0.7 30.8
06:10 1018 30.06 847 25.01 2.6 36.7 79 -0.7 30.7
06:15 1018 30.06 847 25.01 3.4 38.1 78 -0.1 31.8
06:20 1018 30.06 847 25.01 3.8 38.8 88 2 35.7
06:25 1018 30.06 847 25.01 4.3 39.7 85 2.1 35.7
06:30 1018 30.06 847 25.01 4.1 39.3 85 1.7 35.1
06:35 1018 30.06 847 25.01 3.9 39 81 1 33.8
06:40 1018 30.06 847 25.01 3.4 38.1 82 0.6 33.1
06:45 1017 30.03 847 25.01 3.5 38.4 90 2.1 35.7
06:50 1018 30.06 847 25.01 3.6 38.5 89 1.9 35.5
06:55 1018 30.06 847 25.01 3.7 38.7 89 2.1 35.7
07:00 1017 30.03 847 25.01 3.6 38.4 88 1.8 35.3
07:05 1017 30.03 847 25.01 3.5 38.4 89 1.8 35.3
07:10 1017 30.03 847 25.01 3.4 38.1 88 1.5 34.7
07:15 1018 30.06 847 25.01 2.5 36.5 82 -0.2 31.6
07:20 1018 30.06 847 25.01 2.2 35.9 83 -0.4 31.3
07:25 1018 30.06 847 25.01 2.7 36.8 83 0.1 32.2
07:30 1018 30.06 847 25.01 2.9 37.1 83 0.3 32.6
07:35 1018 30.06 847 25.01 3.3 37.9 87 1.3 34.3
07:40 1018 30.06 847 25.01 3.7 38.6 80 0.6 33.1
07:45 1018 30.06 847 25.01 3.8 38.8 80 0.6 33.2
07:50 1018 30.06 847 25.01 3.7 38.7 79 0.4 32.8
07:55 1018 30.06 847 25.01 3.8 38.8 79 0.5 32.9
08:00 1017 30.03 847 25.01 4 39.2 74 -0.2 31.7
08:05 1017 30.03 847 25.01 4.8 40.6 73 0.4 32.8
08:10 1017 30.03 847 25.01 5.1 41.2 74 0.9 33.6
08:15 1017 30.03 847 25.01 5.6 42.2 70 0.7 33.3
08:20 1017 30.03 847 25.01 5.6 42 71 0.7 33.3
08:25 1017 30.03 847 25.01 5.5 41.9 71 0.7 33.3
08:30 1017 30.03 846 24.98 6 42.7 71 1.1 33.9
08:35 1017 30.03 846 24.98 6.5 43.7 69 1.2 34.2
08:40 1017 30.03 846 24.98 6.4 43.6 70 1.4 34.6
08:45 1017 30.03 846 24.98 6.3 43.3 71 1.5 34.6
08:50 1017 30.03 846 24.98 6.5 43.7 74 2.2 36
08:55 1017 30.03 846 24.98 6.4 43.6 75 2.4 36.3
09:00 1017 30.03 846 24.98 6.9 44.4 73 2.4 36.3
09:05 1017 30.03 846 24.98 7.6 45.7 69 2.3 36.1
09:10 1017 30.03 846 24.98 8.4 47 67 2.6 36.6
09:15 1017 30.03 846 24.98 8.7 47.7 66 2.8 37
09:20 1017 30.03 846 24.98 8.3 46.9 70 3.1 37.6
09:25 1017 30.03 846 24.98 8.4 47 67 2.6 36.7
09:30 1017 30.03 846 24.98 8.8 47.9 67 3.2 37.7
09:35 1017 30.03 846 24.98 8.8 47.8 69 3.4 38.1
09:40 1017 30.03 846 24.98 9.5 49.2 64 3.2 37.7
09:45 1017 30.03 846 24.98 10.2 50.3 61 3.1 37.6
09:50 1017 30.03 846 24.98 10.3 50.6 62 3.4 38.1
09:55 1016 30 846 24.98 10.2 50.4 58 2.4 36.3
10:00 1016 30 846 24.98 10.3 50.6 58 2.5 36.6
10:05 1016 30 845 24.95 11 51.8 57 2.7 36.9
10:10 1016 30 845 24.95 11.2 52.1 59 3.4 38.2
10:15 1016 30 845 24.95 11.2 52.1 56 2.8 37
10:20 1016 30 845 24.95 11.7 53 55 3.1 37.6
10:25 1016 30 845 24.95 11.8 53.3 55 3 37.5
10:30 1016 30 845 24.95 12.5 54.5 53 3.3 38
10:35 1016 30 845 24.95 12.4 54.4 54 3.5 38.3
10:40 1016 30 845 24.95 12.2 53.9 57 4.1 39.3
10:45 1016 30 845 24.95 11.7 53 58 3.8 38.8
10:50 1016 30 845 24.95 12.3 54.1 58 4.3 39.7
10:55 1016 30 845 24.95 12.3 54.1 61 5.1 41.3
11:00 1016 30 845 24.95 11.2 52.1 61 3.9 39.1
11:05 1016 30 845 24.95 11.9 53.4 59 4.2 39.5
11:10 1016 30 845 24.95 12 53.7 60 4.6 40.4
11:15 1015 29.97 845 24.95 11.2 52.1 61 4 39.2
11:20 1015 29.97 845 24.95 11.3 52.3 61 4.1 39.3
11:25 1015 29.97 845 24.95 12.4 54.2 57 4 39.3
11:30 1015 29.97 844 24.92 12.4 54.3 59 4.7 40.4
11:35 1015 29.97 844 24.92 12 53.7 58 4.1 39.4
11:40 1015 29.97 844 24.92 11.9 53.4 60 4.5 40.1
11:45 1015 29.97 844 24.92 12.4 54.3 56 4 39.1
11:50 1015 29.97 844 24.92 12.7 54.8 55 3.9 39
11:55 1015 29.97 844 24.92 13 55.4 53 3.8 38.8
12:00 1015 29.97 844 24.92 13.4 56.1 52 3.9 39
12:05 1014 29.94 844 24.92 13.8 56.8 50 3.6 38.6
12:10 1014 29.94 844 24.92 14.6 58.3 48 3.9 39
12:15 1014 29.94 843 24.89 14.3 57.8 51 4.4 39.9
12:20 1014 29.94 843 24.89 14 57.2 51 4.2 39.5
12:25 1014 29.94 843 24.89 14.5 58 49 4 39.2
12:30 1014 29.94 843 24.89 15.1 59.2 47 3.9 39.1
12:35 1014 29.94 843 24.89 15.7 60.2 47 4.3 39.8
12:40 1014 29.94 843 24.89 15.7 60.2 47 4.5 40.1
12:45 1014 29.94 843 24.89 15.5 59.9 48 4.6 40.4
12:50 1014 29.94 843 24.89 15 59.1 49 4.5 40.1
12:55 1014 29.94 843 24.89 14.1 57.4 51 4.3 39.7
13:00 1014 29.94 843 24.89 14.1 57.3 52 4.6 40.3
13:05 1014 29.94 843 24.89 14.3 57.7 49 3.8 38.8
13:10 1014 29.94 843 24.89 14.9 58.8 45 3 37.4
13:15 1014 29.94 843 24.89 15.3 59.6 45 3.5 38.3
13:20 1014 29.94 843 24.89 16.1 61.1 42 3.3 37.9
13:25 1013 29.91 843 24.89 16.3 61.3 43 3.7 38.7
13:30 1013 29.91 843 24.89 16.4 61.6 41 3.1 37.6
13:35 1013 29.91 843 24.89 16.9 62.4 40 3.4 38.1
13:40 1013 29.91 842 24.86 17.2 63 38 2.9 37.3
13:45 1013 29.91 842 24.86 18.3 65 37 3.4 38.1
13:50 1013 29.91 842 24.86 18.7 65.6 35 3.2 37.7
13:55 1013 29.91 842 24.86 19.1 66.4 35 3.4 38
14:00 1013 29.91 842 24.86 19.7 67.5 34 3.7 38.6
14:05 1013 29.91 842 24.86 19.4 66.9 35 3.7 38.6
14:10 1013 29.91 842 24.86 18.6 65.5 39 4.4 40
14:15 1012 29.88 842 24.86 17.9 64.3 38 3.5 38.3
14:20 1012 29.88 841 24.83 18.8 65.9 28 -0.2 31.7
14:25 1012 29.88 841 24.83 20.2 68.4 18 -4.9 23.1
14:30 1012 29.88 841 24.83 21.5 70.7 19 -3.1 26.4
14:35 1012 29.88 841 24.83 21.8 71.2 16 -5 23
14:40 1012 29.88 841 24.83 21.8 71.2 16 -5.4 22.3
14:45 1012 29.88 841 24.83 21.8 71.2 15 -5.9 21.4
14:50 1012 29.88 841 24.83 21.9 71.3 15 -5.7 21.8
14:55 1012 29.88 841 24.83 22 71.7 16 -4.7 23.5
15:00 1012 29.88 841 24.83 22.4 72.2 15 -5.8 21.6
15:05 1012 29.88 841 24.83 22.6 72.6 15 -4.9 23.2
15:10 1012 29.88 841 24.83 22.6 72.6 19 -2.1 28.2
15:15 1012 29.88 841 24.83 22 71.5 19 -2.3 27.8
15:20 1012 29.88 841 24.83 21.8 71.2 20 -2 28.4
15:25 1012 29.88 841 24.83 21.6 70.9 20 -2.1 28.2
15:30 1012 29.88 841 24.83 21.2 70.1 23 -0.7 30.7
15:35 1012 29.88 841 24.83 21.1 70 19 -3.2 26.2
15:40 1012 29.88 841 24.83 21.1 70 20 -2.7 27.2
15:45 1012 29.88 841 24.83 21.2 70.1 20 -2.8 26.9
15:50 1012 29.88 842 24.86 21.1 70 21 -2.2 28.1
15:55 1012 29.88 841 24.83 20.9 69.6 22 -1.7 28.9
16:00 1012 29.88 841 24.83 20.8 69.4 22 -1.4 29.5
16:05 1012 29.88 841 24.83 20.6 69.1 24 -0.6 31
16:10 1012 29.88 841 24.83 20.5 69 19 -3.4 25.8
16:15 1012 29.88 841 24.83 20.7 69.2 18 -4.5 23.9
16:20 1012 29.88 841 24.83 20.8 69.5 19 -3.2 26.3
16:25 1012 29.88 841 24.83 20.8 69.5 17 -4.6 23.7
16:30 1012 29.88 841 24.83 20.8 69.5 19 -3.2 26.2
16:35 1012 29.88 841 24.83 20.6 69.1 20 -3.2 26.3
16:40 1012 29.88 841 24.83 20.3 68.5 19 -4.2 24.5
16:45 1012 29.88 841 24.83 20.1 68.1 20 -3.2 26.3
16:50 1012 29.88 841 24.83 20.1 68.3 20 -3.3 26
16:55 1012 29.88 841 24.83 20 67.9 19 -4.4 24.1
17:00 1012 29.88 841 24.83 20 68 20 -3.4 25.9
17:05 1011 29.85 841 24.83 19.9 67.8 19 -3.9 24.9
17:10 1011 29.85 841 24.83 19.9 67.9 19 -4.5 23.9
17:15 1011 29.85 841 24.83 20.1 68.1 18 -4.5 23.9
17:20 1011 29.85 841 24.83 19.9 67.8 19 -4.4 24.1
17:25 1011 29.85 841 24.83 19.6 67.3 19 -4.6 23.7
17:30 1011 29.85 841 24.83 19.5 67 19 -4.8 23.4
17:35 1011 29.85 840 24.81 19.3 66.7 20 -4.4 24.1
17:40 1011 29.85 840 24.81 19 66.2 20 -4.3 24.3
17:45 1011 29.85 840 24.81 18.6 65.5 21 -3.9 25.1
17:50 1011 29.85 840 24.81 18.2 64.7 22 -3.7 25.4
17:55 1011 29.85 840 24.81 17.9 64.2 24 -2.8 27
18:00 1011 29.85 840 24.81 17.8 64.1 22 -3.9 25.1
18:05 1011 29.85 840 24.81 18 64.4 22 -4 24.9
18:10 1011 29.85 840 24.81 18 64.4 21 -4.6 23.6
18:15 1011 29.85 840 24.81 18.4 65.1 21 -4.2 24.4
18:20 1011 29.85 840 24.81 18.1 64.6 22 -3.6 25.6
18:25 1011 29.85 840 24.81 17.7 63.9 23 -3.6 25.5
18:30 1011 29.85 840 24.81 17.3 63.2 31 0 32
18:35 1011 29.85 840 24.81 17.1 62.7 22 -4.5 23.9
18:40 1011 29.85 840 24.81 18.1 64.5 22 -3.6 25.5
18:45 1011 29.85 840 24.81 17.8 64 22 -4.2 24.4
18:50 1011 29.85 840 24.81 17.8 64 23 -3.6 25.6
18:55 1011 29.85 840 24.81 17.6 63.7 22 -4.1 24.7
19:00 1011 29.85 840 24.81 18 64.4 22 -4.1 24.7
19:05 1011 29.85 840 24.81 18 64.4 23 -3.1 26.3
19:10 1011 29.85 840 24.81 17.9 64.2 22 -4.3 24.3
19:15 1011 29.85 840 24.81 18.4 65.1 22 -3.5 25.7
19:20 1011 29.85 840 24.81 18 64.4 23 -3.5 25.7
19:25 1011 29.85 840 24.81 17.7 63.9 24 -3 26.6
19:30 1010 29.83 840 24.81 17.1 62.8 26 -2.5 27.5
19:35 1010 29.83 840 24.81 16.4 61.4 29 -1.8 28.8
19:40 1010 29.83 840 24.81 16.4 61.4 26 -3 26.6
19:45 1010 29.83 840 24.81 16.4 61.6 26 -2.9 26.8
19:50 1010 29.83 840 24.81 16.4 61.4 25 -3.9 25
19:55 1010 29.83 839 24.78 16.8 62.2 24 -3.7 25.4
20:00 1010 29.83 839 24.78 16.8 62.2 25 -3.1 26.4
20:05 1010 29.83 839 24.78 16.7 62 24 -3.7 25.3
20:10 1010 29.83 839 24.78 17.2 63 26 -2.3 27.9
20:15 1010 29.83 839 24.78 16.9 62.5 26 -2.6 27.2
20:20 1010 29.83 839 24.78 16.6 61.8 26 -2.7 27.2
20:25 1010 29.83 839 24.78 16.4 61.6 26 -2.9 26.7
20:30 1010 29.83 839 24.78 16.4 61.6 26 -2.9 26.8
20:35 1010 29.83 839 24.78 16.5 61.6 26 -3 26.5
20:40 1010 29.83 839 24.78 16.7 62 26 -2.8 27
20:45 1010 29.83 839 24.78 16.7 62 26 -3 26.7
20:50 1010 29.83 839 24.78 17.1 62.7 25 -2.9 26.8
20:55 1010 29.83 839 24.78 17.3 63.1 25 -2.8 27
21:00 1010 29.83 839 24.78 17.4 63.4 25 -2.6 27.3
21:05 1010 29.83 839 24.78 17.4 63.4 24 -3.1 26.5
21:10 1010 29.83 839 24.78 17.3 63.2 26 -2.3 27.8
21:15 1009 29.8 839 24.78 17.2 62.9 26 -2.6 27.3
21:20 1009 29.8 839 24.78 17.2 63 24 -3.3 26
21:25 1009 29.8 839 24.78 17.5 63.5 24 -3.1 26.4
21:30 1009 29.8 838 24.75 17.6 63.6 24 -3.3 26.1
21:35 1009 29.8 838 24.75 17.6 63.7 24 -3.1 26.4
21:40 1009 29.8 838 24.75 17.4 63.4 24 -3 26.6
21:45 1009 29.8 838 24.75 17.3 63.1 25 -2.9 26.8
21:50 1009 29.8 838 24.75 17.2 63 24 -3.2 26.3
21:55 1009 29.8 838 24.75 17.2 62.9 25 -2.8 26.9
22:00 1009 29.8 838 24.75 17 62.5 25 -3 26.7
22:05 1009 29.8 838 24.75 17.1 62.8 25 -3.2 26.2
22:10 1009 29.8 838 24.75 17.3 63.1 25 -2.9 26.7
22:15 1009 29.8 838 24.75 17 62.5 26 -2.8 27
22:20 1009 29.8 838 24.75 16.8 62.2 26 -3 26.7
22:25 1009 29.8 838 24.75 17 62.5 25 -2.9 26.8
22:30 1009 29.8 838 24.75 17 62.6 25 -3.3 26
22:35 1008 29.77 838 24.75 17.2 62.9 25 -2.8 27
22:40 1008 29.77 838 24.75 16.8 62.3 26 -2.9 26.8
22:45 1008 29.77 838 24.75 16.4 61.4 27 -2.6 27.3
22:50 1009 29.8 838 24.75 16.2 61.1 27 -2.7 27.2
22:55 1009 29.8 838 24.75 15.9 60.6 28 -2.6 27.4
23:00 1009 29.8 838 24.75 15.7 60.2 28 -2.4 27.6
23:05 1009 29.8 838 24.75 15.4 59.7 30 -1.8 28.7
23:10 1009 29.8 838 24.75 14.4 57.9 33 -1.4 29.4
23:15 1009 29.8 838 24.75 13.3 56 34 -2.1 28.2
23:20 1009 29.8 838 24.75 13.3 55.9 34 -2.3 27.9
23:25 1009 29.8 838 24.75 13.3 56 34 -2.3 27.8
23:30 1009 29.8 838 24.75 13.5 56.2 33 -2.5 27.5
23:35 1009 29.8 838 24.75 13.8 56.9 32 -2.5 27.5
23:40 1009 29.8 838 24.75 13.9 57 33 -2.2 28
23:45 1009 29.8 838 24.75 13.6 56.5 34 -2 28.5
23:50 1009 29.8 839 24.78 13.2 55.8 36 -1.5 29.2
23:55 1010 29.83 839 24.78 12.8 55 38 -1.1 30.1
24:00 1010 29.83 839 24.78 12.6 54.6 43 0.4 32.7